sensor_id;sensor_type;location;lat;lon;timestamp;P1;durP1;ratioP1;P2;durP2;ratioP2
31906;SDS011;18455;50.858;13.662;2023-10-19T00:03:50;10.53;;;6.40;;
31906;SDS011;18455;50.858;13.662;2023-10-19T00:08:50;13.83;;;6.87;;
31906;SDS011;18455;50.858;13.662;2023-10-19T00:13:52;8.40;;;5.33;;
31906;SDS011;18455;50.858;13.662;2023-10-19T00:18:58;10.13;;;6.37;;
31906;SDS011;18455;50.858;13.662;2023-10-19T00:24:00;12.87;;;6.47;;
31906;SDS011;18455;50.858;13.662;2023-10-19T00:29:05;10.40;;;6.73;;
31906;SDS011;18455;50.858;13.662;2023-10-19T00:34:27;9.17;;;6.07;;
31906;SDS011;18455;50.858;13.662;2023-10-19T00:39:28;9.27;;;6.17;;
31906;SDS011;18455;50.858;13.662;2023-10-19T00:44:40;10.47;;;6.40;;
31906;SDS011;18455;50.858;13.662;2023-10-19T00:49:42;13.27;;;5.83;;
31906;SDS011;18455;50.858;13.662;2023-10-19T00:54:44;7.87;;;6.00;;
31906;SDS011;18455;50.858;13.662;2023-10-19T00:59:55;10.70;;;5.97;;
31906;SDS011;18455;50.858;13.662;2023-10-19T01:05:11;10.30;;;6.87;;
31906;SDS011;18455;50.858;13.662;2023-10-19T01:10:14;15.50;;;7.30;;
31906;SDS011;18455;50.858;13.662;2023-10-19T01:15:21;13.10;;;7.20;;
31906;SDS011;18455;50.858;13.662;2023-10-19T01:20:30;10.40;;;7.17;;
31906;SDS011;18455;50.858;13.662;2023-10-19T01:25:42;12.27;;;6.73;;
31906;SDS011;18455;50.858;13.662;2023-10-19T01:31:16;9.67;;;6.50;;
31906;SDS011;18455;50.858;13.662;2023-10-19T01:36:17;7.37;;;5.00;;
31906;SDS011;18455;50.858;13.662;2023-10-19T01:41:25;7.27;;;5.80;;
31906;SDS011;18455;50.858;13.662;2023-10-19T01:46:26;11.23;;;7.50;;
31906;SDS011;18455;50.858;13.662;2023-10-19T01:51:33;10.40;;;8.10;;
31906;SDS011;18455;50.858;13.662;2023-10-19T01:56:38;12.67;;;8.57;;
31906;SDS011;18455;50.858;13.662;2023-10-19T02:01:42;14.30;;;7.20;;
31906;SDS011;18455;50.858;13.662;2023-10-19T02:06:45;15.83;;;9.13;;
31906;SDS011;18455;50.858;13.662;2023-10-19T02:11:51;14.50;;;9.60;;
31906;SDS011;18455;50.858;13.662;2023-10-19T02:16:59;13.03;;;8.17;;
31906;SDS011;18455;50.858;13.662;2023-10-19T02:22:03;11.87;;;8.20;;
31906;SDS011;18455;50.858;13.662;2023-10-19T02:27:05;11.03;;;6.70;;
31906;SDS011;18455;50.858;13.662;2023-10-19T02:32:05;16.43;;;10.03;;
31906;SDS011;18455;50.858;13.662;2023-10-19T02:37:06;11.20;;;7.97;;
31906;SDS011;18455;50.858;13.662;2023-10-19T02:42:07;16.83;;;10.30;;
31906;SDS011;18455;50.858;13.662;2023-10-19T02:47:08;8.60;;;5.97;;
31906;SDS011;18455;50.858;13.662;2023-10-19T02:52:09;14.50;;;9.00;;
31906;SDS011;18455;50.858;13.662;2023-10-19T02:57:13;16.30;;;8.67;;
31906;SDS011;18455;50.858;13.662;2023-10-19T03:02:13;17.33;;;11.10;;
31906;SDS011;18455;50.858;13.662;2023-10-19T03:07:14;16.30;;;9.33;;
31906;SDS011;18455;50.858;13.662;2023-10-19T03:12:15;16.90;;;10.97;;
31906;SDS011;18455;50.858;13.662;2023-10-19T03:17:17;17.37;;;9.30;;
31906;SDS011;18455;50.858;13.662;2023-10-19T03:22:18;20.53;;;12.70;;
31906;SDS011;18455;50.858;13.662;2023-10-19T03:27:19;20.63;;;12.77;;
31906;SDS011;18455;50.858;13.662;2023-10-19T03:32:23;24.67;;;16.40;;
31906;SDS011;18455;50.858;13.662;2023-10-19T03:37:27;18.63;;;11.17;;
31906;SDS011;18455;50.858;13.662;2023-10-19T03:42:32;22.57;;;14.63;;
31906;SDS011;18455;50.858;13.662;2023-10-19T03:47:32;17.83;;;13.83;;
31906;SDS011;18455;50.858;13.662;2023-10-19T03:52:37;21.53;;;14.07;;
31906;SDS011;18455;50.858;13.662;2023-10-19T03:57:38;26.37;;;18.87;;
31906;SDS011;18455;50.858;13.662;2023-10-19T04:02:46;14.07;;;9.60;;
31906;SDS011;18455;50.858;13.662;2023-10-19T04:07:47;22.30;;;15.07;;
31906;SDS011;18455;50.858;13.662;2023-10-19T04:12:50;26.70;;;18.00;;
31906;SDS011;18455;50.858;13.662;2023-10-19T04:17:50;20.83;;;15.57;;
31906;SDS011;18455;50.858;13.662;2023-10-19T04:22:52;18.63;;;13.70;;
31906;SDS011;18455;50.858;13.662;2023-10-19T04:27:53;16.93;;;12.80;;
31906;SDS011;18455;50.858;13.662;2023-10-19T04:32:54;22.43;;;15.67;;
31906;SDS011;18455;50.858;13.662;2023-10-19T04:37:57;15.50;;;10.93;;
31906;SDS011;18455;50.858;13.662;2023-10-19T04:42:58;16.90;;;10.57;;
31906;SDS011;18455;50.858;13.662;2023-10-19T04:47:59;20.57;;;12.87;;
31906;SDS011;18455;50.858;13.662;2023-10-19T04:53:04;19.83;;;13.60;;
31906;SDS011;18455;50.858;13.662;2023-10-19T04:58:04;15.50;;;11.23;;
31906;SDS011;18455;50.858;13.662;2023-10-19T05:03:06;15.67;;;10.60;;
31906;SDS011;18455;50.858;13.662;2023-10-19T05:08:06;18.93;;;12.60;;
31906;SDS011;18455;50.858;13.662;2023-10-19T05:13:07;17.93;;;13.93;;
31906;SDS011;18455;50.858;13.662;2023-10-19T05:18:07;16.50;;;10.90;;
31906;SDS011;18455;50.858;13.662;2023-10-19T05:23:07;21.77;;;14.83;;
31906;SDS011;18455;50.858;13.662;2023-10-19T05:28:11;20.60;;;13.57;;
31906;SDS011;18455;50.858;13.662;2023-10-19T05:33:11;17.33;;;12.83;;
31906;SDS011;18455;50.858;13.662;2023-10-19T05:38:11;17.23;;;11.67;;
31906;SDS011;18455;50.858;13.662;2023-10-19T05:43:12;18.83;;;13.17;;
31906;SDS011;18455;50.858;13.662;2023-10-19T05:48:12;20.03;;;16.27;;
31906;SDS011;18455;50.858;13.662;2023-10-19T05:53:13;22.77;;;18.47;;
31906;SDS011;18455;50.858;13.662;2023-10-19T05:58:18;26.13;;;17.67;;
31906;SDS011;18455;50.858;13.662;2023-10-19T06:03:19;22.60;;;18.30;;
31906;SDS011;18455;50.858;13.662;2023-10-19T06:08:19;25.67;;;17.87;;
31906;SDS011;18455;50.858;13.662;2023-10-19T06:13:19;22.90;;;17.20;;
31906;SDS011;18455;50.858;13.662;2023-10-19T06:18:21;24.93;;;16.23;;
31906;SDS011;18455;50.858;13.662;2023-10-19T06:23:22;25.73;;;18.73;;
31906;SDS011;18455;50.858;13.662;2023-10-19T06:28:22;21.40;;;15.77;;
31906;SDS011;18455;50.858;13.662;2023-10-19T06:33:23;24.53;;;16.53;;
31906;SDS011;18455;50.858;13.662;2023-10-19T06:38:23;19.13;;;14.47;;
31906;SDS011;18455;50.858;13.662;2023-10-19T06:43:24;19.27;;;12.93;;
31906;SDS011;18455;50.858;13.662;2023-10-19T06:48:28;16.60;;;12.00;;
31906;SDS011;18455;50.858;13.662;2023-10-19T06:53:29;18.53;;;12.97;;
31906;SDS011;18455;50.858;13.662;2023-10-19T06:58:29;18.63;;;12.50;;
31906;SDS011;18455;50.858;13.662;2023-10-19T07:03:29;22.00;;;16.23;;
31906;SDS011;18455;50.858;13.662;2023-10-19T07:08:30;20.03;;;14.50;;
31906;SDS011;18455;50.858;13.662;2023-10-19T07:13:31;16.53;;;12.13;;
31906;SDS011;18455;50.858;13.662;2023-10-19T07:18:33;17.70;;;13.27;;
31906;SDS011;18455;50.858;13.662;2023-10-19T07:23:33;18.23;;;12.27;;
31906;SDS011;18455;50.858;13.662;2023-10-19T07:28:34;20.23;;;16.13;;
31906;SDS011;18455;50.858;13.662;2023-10-19T07:33:35;17.03;;;11.87;;
31906;SDS011;18455;50.858;13.662;2023-10-19T07:38:38;22.00;;;15.30;;
31906;SDS011;18455;50.858;13.662;2023-10-19T07:43:39;17.47;;;12.57;;
31906;SDS011;18455;50.858;13.662;2023-10-19T07:48:39;12.40;;;9.63;;
31906;SDS011;18455;50.858;13.662;2023-10-19T07:53:40;15.53;;;10.63;;
31906;SDS011;18455;50.858;13.662;2023-10-19T07:58:40;15.33;;;12.30;;
31906;SDS011;18455;50.858;13.662;2023-10-19T08:03:41;13.90;;;10.40;;
31906;SDS011;18455;50.858;13.662;2023-10-19T08:08:42;16.73;;;9.80;;
31906;SDS011;18455;50.858;13.662;2023-10-19T08:13:42;13.97;;;10.97;;
31906;SDS011;18455;50.858;13.662;2023-10-19T08:18:43;9.40;;;7.17;;
31906;SDS011;18455;50.858;13.662;2023-10-19T08:23:44;12.97;;;9.73;;
31906;SDS011;18455;50.858;13.662;2023-10-19T08:28:45;12.47;;;10.37;;
31906;SDS011;18455;50.858;13.662;2023-10-19T08:33:46;12.67;;;10.30;;
31906;SDS011;18455;50.858;13.662;2023-10-19T08:38:47;14.00;;;10.53;;
31906;SDS011;18455;50.858;13.662;2023-10-19T08:43:48;12.67;;;9.47;;
31906;SDS011;18455;50.858;13.662;2023-10-19T08:48:49;7.30;;;5.30;;
31906;SDS011;18455;50.858;13.662;2023-10-19T08:53:49;8.13;;;5.90;;
31906;SDS011;18455;50.858;13.662;2023-10-19T08:58:52;10.23;;;7.43;;
31906;SDS011;18455;50.858;13.662;2023-10-19T09:03:53;7.57;;;5.60;;
31906;SDS011;18455;50.858;13.662;2023-10-19T09:08:57;9.73;;;7.37;;
31906;SDS011;18455;50.858;13.662;2023-10-19T09:14:00;8.17;;;6.80;;
31906;SDS011;18455;50.858;13.662;2023-10-19T09:19:01;10.10;;;8.30;;
31906;SDS011;18455;50.858;13.662;2023-10-19T09:24:01;10.73;;;8.70;;
31906;SDS011;18455;50.858;13.662;2023-10-19T09:29:02;10.80;;;7.80;;
31906;SDS011;18455;50.858;13.662;2023-10-19T09:34:03;11.30;;;9.10;;
31906;SDS011;18455;50.858;13.662;2023-10-19T09:39:05;10.90;;;8.23;;
31906;SDS011;18455;50.858;13.662;2023-10-19T09:44:12;10.87;;;8.67;;
31906;SDS011;18455;50.858;13.662;2023-10-19T09:49:15;13.43;;;9.03;;
31906;SDS011;18455;50.858;13.662;2023-10-19T09:54:32;13.03;;;10.00;;
31906;SDS011;18455;50.858;13.662;2023-10-19T09:59:38;12.00;;;9.67;;
31906;SDS011;18455;50.858;13.662;2023-10-19T10:04:40;14.67;;;10.87;;
31906;SDS011;18455;50.858;13.662;2023-10-19T10:09:42;11.83;;;9.43;;
31906;SDS011;18455;50.858;13.662;2023-10-19T10:15:02;15.30;;;12.10;;
31906;SDS011;18455;50.858;13.662;2023-10-19T10:25:27;17.00;;;14.57;;
31906;SDS011;18455;50.858;13.662;2023-10-19T10:30:28;16.53;;;13.57;;
31906;SDS011;18455;50.858;13.662;2023-10-19T10:40:44;19.27;;;14.37;;
31906;SDS011;18455;50.858;13.662;2023-10-19T10:45:48;17.57;;;12.10;;
31906;SDS011;18455;50.858;13.662;2023-10-19T10:50:48;14.63;;;13.07;;
31906;SDS011;18455;50.858;13.662;2023-10-19T10:55:49;17.70;;;12.30;;
31906;SDS011;18455;50.858;13.662;2023-10-19T11:00:50;14.63;;;11.97;;
31906;SDS011;18455;50.858;13.662;2023-10-19T11:05:51;11.33;;;10.13;;
31906;SDS011;18455;50.858;13.662;2023-10-19T11:10:53;13.37;;;10.30;;
31906;SDS011;18455;50.858;13.662;2023-10-19T11:15:55;10.87;;;9.40;;
31906;SDS011;18455;50.858;13.662;2023-10-19T11:20:56;10.80;;;7.50;;
31906;SDS011;18455;50.858;13.662;2023-10-19T11:25:59;12.87;;;9.63;;
31906;SDS011;18455;50.858;13.662;2023-10-19T11:31:12;12.23;;;8.67;;
31906;SDS011;18455;50.858;13.662;2023-10-19T11:36:14;13.30;;;10.00;;
31906;SDS011;18455;50.858;13.662;2023-10-19T11:41:15;10.33;;;9.20;;
31906;SDS011;18455;50.858;13.662;2023-10-19T11:46:16;10.17;;;8.53;;
31906;SDS011;18455;50.858;13.662;2023-10-19T11:51:23;12.43;;;8.80;;
31906;SDS011;18455;50.858;13.662;2023-10-19T11:56:23;10.40;;;9.27;;
31906;SDS011;18455;50.858;13.662;2023-10-19T12:01:25;11.17;;;9.00;;
31906;SDS011;18455;50.858;13.662;2023-10-19T12:06:27;10.90;;;8.98;;
31906;SDS011;18455;50.858;13.662;2023-10-19T12:11:27;8.52;;;7.15;;
31906;SDS011;18455;50.858;13.662;2023-10-19T12:16:28;9.60;;;8.60;;
31906;SDS011;18455;50.858;13.662;2023-10-19T12:21:28;10.63;;;8.50;;
31906;SDS011;18455;50.858;13.662;2023-10-19T12:26:31;9.88;;;6.95;;
31906;SDS011;18455;50.858;13.662;2023-10-19T12:31:32;10.52;;;8.35;;
31906;SDS011;18455;50.858;13.662;2023-10-19T12:36:34;13.75;;;11.55;;
31906;SDS011;18455;50.858;13.662;2023-10-19T12:41:35;8.05;;;6.00;;
31906;SDS011;18455;50.858;13.662;2023-10-19T12:46:35;9.45;;;6.88;;
31906;SDS011;18455;50.858;13.662;2023-10-19T12:51:36;7.43;;;5.97;;
31906;SDS011;18455;50.858;13.662;2023-10-19T12:56:38;6.85;;;5.65;;
31906;SDS011;18455;50.858;13.662;2023-10-19T13:01:39;6.38;;;5.47;;
31906;SDS011;18455;50.858;13.662;2023-10-19T13:06:40;6.20;;;5.13;;
31906;SDS011;18455;50.858;13.662;2023-10-19T13:11:41;6.05;;;5.03;;
31906;SDS011;18455;50.858;13.662;2023-10-19T13:16:44;6.35;;;4.70;;
31906;SDS011;18455;50.858;13.662;2023-10-19T13:21:44;7.20;;;4.60;;
31906;SDS011;18455;50.858;13.662;2023-10-19T13:33:07;6.00;;;5.40;;
31906;SDS011;18455;50.858;13.662;2023-10-19T13:38:10;6.43;;;5.80;;
31906;SDS011;18455;50.858;13.662;2023-10-19T13:43:17;7.43;;;5.70;;
31906;SDS011;18455;50.858;13.662;2023-10-19T13:48:18;6.43;;;5.72;;
31906;SDS011;18455;50.858;13.662;2023-10-19T13:53:19;6.03;;;5.20;;
31906;SDS011;18455;50.858;13.662;2023-10-19T13:58:20;7.63;;;5.80;;
31906;SDS011;18455;50.858;13.662;2023-10-19T14:03:21;7.72;;;6.40;;
31906;SDS011;18455;50.858;13.662;2023-10-19T14:08:22;6.47;;;5.43;;
31906;SDS011;18455;50.858;13.662;2023-10-19T14:13:22;6.20;;;5.60;;
31906;SDS011;18455;50.858;13.662;2023-10-19T14:18:23;6.50;;;5.90;;
31906;SDS011;18455;50.858;13.662;2023-10-19T14:23:23;6.00;;;5.35;;
31906;SDS011;18455;50.858;13.662;2023-10-19T14:28:24;7.40;;;6.03;;
31906;SDS011;18455;50.858;13.662;2023-10-19T14:33:25;11.40;;;6.15;;
31906;SDS011;18455;50.858;13.662;2023-10-19T14:38:25;8.95;;;5.97;;
31906;SDS011;18455;50.858;13.662;2023-10-19T14:43:27;6.95;;;6.25;;
31906;SDS011;18455;50.858;13.662;2023-10-19T14:48:29;7.93;;;6.43;;
31906;SDS011;18455;50.858;13.662;2023-10-19T14:53:29;6.55;;;5.93;;
31906;SDS011;18455;50.858;13.662;2023-10-19T14:58:30;6.82;;;6.10;;
31906;SDS011;18455;50.858;13.662;2023-10-19T15:03:31;8.73;;;6.78;;
31906;SDS011;18455;50.858;13.662;2023-10-19T15:08:32;11.40;;;8.07;;
31906;SDS011;18455;50.858;13.662;2023-10-19T15:13:32;8.18;;;6.50;;
31906;SDS011;18455;50.858;13.662;2023-10-19T15:18:48;7.20;;;6.50;;
31906;SDS011;18455;50.858;13.662;2023-10-19T15:23:48;7.82;;;6.70;;
31906;SDS011;18455;50.858;13.662;2023-10-19T15:28:50;8.20;;;6.38;;
31906;SDS011;18455;50.858;13.662;2023-10-19T15:33:50;8.73;;;5.60;;
31906;SDS011;18455;50.858;13.662;2023-10-19T15:38:51;7.07;;;6.38;;
31906;SDS011;18455;50.858;13.662;2023-10-19T15:43:51;8.02;;;6.55;;
31906;SDS011;18455;50.858;13.662;2023-10-19T15:48:51;7.45;;;6.07;;
31906;SDS011;18455;50.858;13.662;2023-10-19T15:53:55;7.32;;;6.05;;
31906;SDS011;18455;50.858;13.662;2023-10-19T15:58:56;7.15;;;6.15;;
31906;SDS011;18455;50.858;13.662;2023-10-19T16:03:56;7.68;;;6.85;;
31906;SDS011;18455;50.858;13.662;2023-10-19T16:08:57;7.53;;;6.72;;
31906;SDS011;18455;50.858;13.662;2023-10-19T16:13:57;9.93;;;7.03;;
31906;SDS011;18455;50.858;13.662;2023-10-19T16:18:57;10.48;;;7.30;;
31906;SDS011;18455;50.858;13.662;2023-10-19T16:23:58;13.70;;;9.68;;
31906;SDS011;18455;50.858;13.662;2023-10-19T16:28:59;54.15;;;30.80;;
31906;SDS011;18455;50.858;13.662;2023-10-19T16:33:59;11.07;;;9.18;;
31906;SDS011;18455;50.858;13.662;2023-10-19T16:39:00;9.43;;;7.32;;
31906;SDS011;18455;50.858;13.662;2023-10-19T16:44:00;10.57;;;7.90;;
31906;SDS011;18455;50.858;13.662;2023-10-19T16:49:46;7.57;;;6.80;;
31906;SDS011;18455;50.858;13.662;2023-10-19T16:54:47;10.43;;;6.10;;
31906;SDS011;18455;50.858;13.662;2023-10-19T16:59:47;9.25;;;7.10;;
31906;SDS011;18455;50.858;13.662;2023-10-19T17:04:51;9.27;;;7.43;;
31906;SDS011;18455;50.858;13.662;2023-10-19T17:09:51;6.70;;;5.72;;
31906;SDS011;18455;50.858;13.662;2023-10-19T17:14:52;6.80;;;5.60;;
31906;SDS011;18455;50.858;13.662;2023-10-19T17:19:52;8.18;;;6.28;;
31906;SDS011;18455;50.858;13.662;2023-10-19T17:24:53;8.05;;;5.95;;
31906;SDS011;18455;50.858;13.662;2023-10-19T17:29:54;8.52;;;7.22;;
31906;SDS011;18455;50.858;13.662;2023-10-19T17:34:54;7.13;;;6.13;;
31906;SDS011;18455;50.858;13.662;2023-10-19T17:39:55;6.72;;;5.18;;
31906;SDS011;18455;50.858;13.662;2023-10-19T17:44:55;7.85;;;5.78;;
31906;SDS011;18455;50.858;13.662;2023-10-19T17:49:56;6.53;;;5.85;;
31906;SDS011;18455;50.858;13.662;2023-10-19T17:54:56;7.83;;;5.87;;
31906;SDS011;18455;50.858;13.662;2023-10-19T17:59:57;7.88;;;6.32;;
31906;SDS011;18455;50.858;13.662;2023-10-19T18:04:57;10.00;;;6.87;;
31906;SDS011;18455;50.858;13.662;2023-10-19T18:09:57;6.80;;;5.95;;
31906;SDS011;18455;50.858;13.662;2023-10-19T18:14:59;9.50;;;6.87;;
31906;SDS011;18455;50.858;13.662;2023-10-19T18:20:00;9.13;;;7.57;;
31906;SDS011;18455;50.858;13.662;2023-10-19T18:25:00;11.83;;;8.47;;
31906;SDS011;18455;50.858;13.662;2023-10-19T18:30:01;8.13;;;6.53;;
31906;SDS011;18455;50.858;13.662;2023-10-19T18:35:01;7.70;;;6.47;;
31906;SDS011;18455;50.858;13.662;2023-10-19T18:40:01;11.80;;;7.38;;
31906;SDS011;18455;50.858;13.662;2023-10-19T18:45:02;8.52;;;6.50;;
31906;SDS011;18455;50.858;13.662;2023-10-19T18:50:05;9.10;;;7.50;;
31906;SDS011;18455;50.858;13.662;2023-10-19T18:55:09;8.15;;;7.28;;
31906;SDS011;18455;50.858;13.662;2023-10-19T19:00:14;9.23;;;8.23;;
31906;SDS011;18455;50.858;13.662;2023-10-19T19:05:14;8.50;;;7.60;;
31906;SDS011;18455;50.858;13.662;2023-10-19T19:10:15;8.45;;;7.57;;
31906;SDS011;18455;50.858;13.662;2023-10-19T19:15:16;7.83;;;6.90;;
31906;SDS011;18455;50.858;13.662;2023-10-19T19:20:16;10.98;;;8.48;;
31906;SDS011;18455;50.858;13.662;2023-10-19T19:25:21;10.33;;;7.40;;
31906;SDS011;18455;50.858;13.662;2023-10-19T19:30:21;8.02;;;6.32;;
31906;SDS011;18455;50.858;13.662;2023-10-19T19:35:22;10.90;;;8.90;;
31906;SDS011;18455;50.858;13.662;2023-10-19T19:40:22;11.07;;;8.57;;
31906;SDS011;18455;50.858;13.662;2023-10-19T19:45:24;9.95;;;7.38;;
31906;SDS011;18455;50.858;13.662;2023-10-19T19:50:25;9.55;;;6.82;;
31906;SDS011;18455;50.858;13.662;2023-10-19T19:55:26;9.97;;;8.23;;
31906;SDS011;18455;50.858;13.662;2023-10-19T20:00:28;14.25;;;8.65;;
31906;SDS011;18455;50.858;13.662;2023-10-19T20:05:30;12.03;;;9.67;;
31906;SDS011;18455;50.858;13.662;2023-10-19T20:10:36;17.30;;;12.80;;
31906;SDS011;18455;50.858;13.662;2023-10-19T20:15:38;19.13;;;13.40;;
31906;SDS011;18455;50.858;13.662;2023-10-19T20:20:41;19.87;;;14.30;;
31906;SDS011;18455;50.858;13.662;2023-10-19T20:25:41;20.93;;;12.03;;
31906;SDS011;18455;50.858;13.662;2023-10-19T20:30:41;22.73;;;13.77;;
31906;SDS011;18455;50.858;13.662;2023-10-19T20:35:42;25.57;;;15.30;;
31906;SDS011;18455;50.858;13.662;2023-10-19T20:40:44;24.73;;;15.67;;
31906;SDS011;18455;50.858;13.662;2023-10-19T20:45:45;27.20;;;19.67;;
31906;SDS011;18455;50.858;13.662;2023-10-19T20:50:48;29.57;;;20.37;;
31906;SDS011;18455;50.858;13.662;2023-10-19T20:55:48;29.73;;;19.97;;
31906;SDS011;18455;50.858;13.662;2023-10-19T21:00:49;32.03;;;21.03;;
31906;SDS011;18455;50.858;13.662;2023-10-19T21:05:49;29.37;;;19.03;;
31906;SDS011;18455;50.858;13.662;2023-10-19T21:10:50;32.17;;;20.87;;
31906;SDS011;18455;50.858;13.662;2023-10-19T21:15:51;29.90;;;20.33;;
31906;SDS011;18455;50.858;13.662;2023-10-19T21:20:55;31.30;;;19.40;;
31906;SDS011;18455;50.858;13.662;2023-10-19T21:25:57;31.47;;;19.80;;
31906;SDS011;18455;50.858;13.662;2023-10-19T21:30:58;29.47;;;19.80;;
31906;SDS011;18455;50.858;13.662;2023-10-19T21:36:00;26.90;;;18.80;;
31906;SDS011;18455;50.858;13.662;2023-10-19T21:41:00;24.00;;;17.47;;
31906;SDS011;18455;50.858;13.662;2023-10-19T21:46:01;23.93;;;16.80;;
31906;SDS011;18455;50.858;13.662;2023-10-19T21:51:02;22.27;;;16.50;;
31906;SDS011;18455;50.858;13.662;2023-10-19T21:56:03;20.97;;;14.90;;
31906;SDS011;18455;50.858;13.662;2023-10-19T22:01:03;23.23;;;15.87;;
31906;SDS011;18455;50.858;13.662;2023-10-19T22:06:07;23.07;;;14.60;;
31906;SDS011;18455;50.858;13.662;2023-10-19T22:11:07;18.13;;;13.57;;
31906;SDS011;18455;50.858;13.662;2023-10-19T22:16:08;18.30;;;14.40;;
31906;SDS011;18455;50.858;13.662;2023-10-19T22:21:09;17.47;;;13.70;;
31906;SDS011;18455;50.858;13.662;2023-10-19T22:26:09;16.13;;;12.17;;
31906;SDS011;18455;50.858;13.662;2023-10-19T22:31:10;15.17;;;11.83;;
31906;SDS011;18455;50.858;13.662;2023-10-19T22:36:10;16.03;;;11.23;;
31906;SDS011;18455;50.858;13.662;2023-10-19T22:41:12;15.23;;;12.13;;
31906;SDS011;18455;50.858;13.662;2023-10-19T22:46:12;14.93;;;12.02;;
31906;SDS011;18455;50.858;13.662;2023-10-19T22:51:13;15.32;;;12.73;;
31906;SDS011;18455;50.858;13.662;2023-10-19T22:56:13;14.05;;;11.13;;
31906;SDS011;18455;50.858;13.662;2023-10-19T23:01:15;14.00;;;10.32;;
31906;SDS011;18455;50.858;13.662;2023-10-19T23:06:16;12.45;;;10.57;;
31906;SDS011;18455;50.858;13.662;2023-10-19T23:11:16;17.65;;;10.25;;
31906;SDS011;18455;50.858;13.662;2023-10-19T23:16:18;15.55;;;11.73;;
31906;SDS011;18455;50.858;13.662;2023-10-19T23:21:21;15.55;;;12.00;;
31906;SDS011;18455;50.858;13.662;2023-10-19T23:26:32;16.95;;;13.40;;
31906;SDS011;18455;50.858;13.662;2023-10-19T23:31:33;19.55;;;14.52;;
31906;SDS011;18455;50.858;13.662;2023-10-19T23:36:38;21.83;;;15.38;;
31906;SDS011;18455;50.858;13.662;2023-10-19T23:41:39;24.05;;;16.77;;
31906;SDS011;18455;50.858;13.662;2023-10-19T23:46:41;22.15;;;15.85;;
31906;SDS011;18455;50.858;13.662;2023-10-19T23:51:42;23.80;;;17.35;;
31906;SDS011;18455;50.858;13.662;2023-10-19T23:56:42;20.02;;;15.57;;
